createdAt,value
2023-03-01T00:02:07.697Z,-2.80
2023-03-01T00:04:37.972Z,-2.90
2023-03-01T00:07:07.944Z,-2.90
2023-03-01T00:09:38.363Z,-2.90
2023-03-01T00:12:07.631Z,-2.90
2023-03-01T00:14:36.627Z,-3.00
2023-03-01T00:17:05.646Z,-3.00
2023-03-01T00:19:34.773Z,-3.00
2023-03-01T00:22:03.439Z,-3.00
2023-03-01T00:24:33.479Z,-3.00
2023-03-01T00:27:02.070Z,-3.10
2023-03-01T00:29:30.749Z,-3.00
2023-03-01T00:31:59.699Z,-3.10
2023-03-01T00:34:28.250Z,-3.10
2023-03-01T00:37:06.370Z,-3.10
2023-03-01T00:39:36.343Z,-3.10
2023-03-01T00:42:05.396Z,-3.20
2023-03-01T00:44:35.496Z,-3.20
2023-03-01T00:47:04.098Z,-3.20
2023-03-01T00:49:32.770Z,-3.20
2023-03-01T00:52:01.424Z,-3.20
2023-03-01T00:54:30.222Z,-3.30
2023-03-01T00:57:00.203Z,-3.30
2023-03-01T00:59:29.017Z,-3.30
2023-03-01T01:01:57.507Z,-3.30
2023-03-01T01:04:26.005Z,-3.30
2023-03-01T01:06:54.854Z,-3.30
2023-03-01T01:09:24.163Z,-3.30
2023-03-01T01:11:53.609Z,-3.30
2023-03-01T01:14:23.590Z,-3.30
2023-03-01T01:16:52.659Z,-3.40
2023-03-01T01:19:21.439Z,-3.40
2023-03-01T01:21:50.275Z,-3.40
2023-03-01T01:24:19.580Z,-3.40
2023-03-01T01:26:48.506Z,-3.40
2023-03-01T01:29:17.093Z,-3.40
2023-03-01T01:31:47.597Z,-3.40
2023-03-01T01:34:18.560Z,-3.40
2023-03-01T01:36:50.476Z,-3.40
2023-03-01T01:39:19.380Z,-3.40
2023-03-01T01:41:47.965Z,-3.50
2023-03-01T01:44:20.365Z,-3.50
2023-03-01T01:46:53.505Z,-3.60
2023-03-01T01:49:27.828Z,-3.60
2023-03-01T01:52:03.429Z,-3.60
2023-03-01T01:54:40.022Z,-3.60
2023-03-01T01:57:12.943Z,-3.60
2023-03-01T01:59:44.828Z,-3.60
2023-03-01T02:02:15.454Z,-3.60
2023-03-01T02:04:44.432Z,-3.70
2023-03-01T02:07:18.552Z,-3.60
2023-03-01T02:09:50.746Z,-3.70
2023-03-01T02:12:21.726Z,-3.60
2023-03-01T02:14:50.327Z,-3.70
2023-03-01T02:17:22.135Z,-3.70
2023-03-01T02:20:08.145Z,-3.70
2023-03-01T02:22:39.693Z,-3.80
2023-03-01T02:25:19.664Z,-3.80
2023-03-01T02:27:58.935Z,-3.80
2023-03-01T02:30:29.894Z,-3.80
2023-03-01T02:33:04.030Z,-3.80
2023-03-01T02:35:36.157Z,-3.80
2023-03-01T02:38:08.426Z,-3.80
2023-03-01T02:40:40.371Z,-3.80
2023-03-01T02:43:12.585Z,-3.90
2023-03-01T02:45:50.638Z,-3.90
2023-03-01T02:48:19.331Z,-3.90
2023-03-01T02:51:08.055Z,-3.90
2023-03-01T02:53:47.887Z,-3.90
2023-03-01T02:56:16.497Z,-3.90
2023-03-01T02:58:49.152Z,-4.00
2023-03-01T03:01:19.626Z,-4.00
2023-03-01T03:03:48.184Z,-4.00
2023-03-01T03:06:16.758Z,-4.00
2023-03-01T03:08:45.267Z,-3.90
2023-03-01T03:11:14.006Z,-4.00
2023-03-01T03:13:49.418Z,-4.00
2023-03-01T03:16:22.125Z,-4.00
2023-03-01T03:18:51.272Z,-4.00
2023-03-01T03:21:19.774Z,-4.00
2023-03-01T03:23:48.239Z,-4.00
2023-03-01T03:26:17.026Z,-4.10
2023-03-01T03:28:45.511Z,-4.10
2023-03-01T03:31:14.076Z,-4.10
2023-03-01T03:33:44.038Z,-4.20
2023-03-01T03:36:18.938Z,-4.10
2023-03-01T03:38:48.167Z,-4.10
2023-03-01T03:41:17.093Z,-4.10
2023-03-01T03:43:46.078Z,-4.10
2023-03-01T03:46:15.414Z,-4.00
2023-03-01T03:48:47.235Z,-4.00
2023-03-01T03:51:17.140Z,-4.00
2023-03-01T03:53:46.047Z,-4.00
2023-03-01T03:56:15.205Z,-4.00
2023-03-01T03:58:43.728Z,-4.10
2023-03-01T04:01:12.224Z,-4.10
2023-03-01T04:03:40.804Z,-4.20
2023-03-01T04:06:11.104Z,-4.20
2023-03-01T04:08:40.422Z,-4.20
2023-03-01T04:11:29.262Z,-4.30
2023-03-01T04:14:01.403Z,-4.30
2023-03-01T04:16:30.749Z,-4.30
2023-03-01T04:19:00.802Z,-4.30
2023-03-01T04:21:30.925Z,-4.30
2023-03-01T04:23:59.474Z,-4.30
2023-03-01T04:26:28.451Z,-4.40
2023-03-01T04:28:57.220Z,-4.40
2023-03-01T04:31:25.681Z,-4.40
2023-03-01T04:33:58.325Z,-4.40
2023-03-01T04:36:29.317Z,-4.40
2023-03-01T04:38:59.368Z,-4.40
2023-03-01T04:41:28.191Z,-4.40
2023-03-01T04:43:56.760Z,-4.40
2023-03-01T04:46:26.533Z,-4.40
2023-03-01T04:48:55.096Z,-4.40
2023-03-01T04:51:23.836Z,-4.40
2023-03-01T04:53:52.488Z,-4.40
2023-03-01T04:56:24.178Z,-4.40
2023-03-01T04:58:55.365Z,-4.30
2023-03-01T05:01:24.655Z,-4.30
2023-03-01T05:03:54.164Z,-4.30
2023-03-01T05:06:23.116Z,-4.30
2023-03-01T05:08:51.850Z,-4.30
2023-03-01T05:11:21.692Z,-4.30
2023-03-01T05:13:51.060Z,-4.30
2023-03-01T05:16:21.106Z,-4.40
2023-03-01T05:18:52.183Z,-4.30
2023-03-01T05:21:20.921Z,-4.30
2023-03-01T05:23:49.989Z,-4.30
2023-03-01T05:26:28.680Z,-4.30
2023-03-01T05:29:00.520Z,-4.30
2023-03-01T05:31:29.342Z,-4.30
2023-03-01T05:33:58.129Z,-4.30
2023-03-01T05:36:26.604Z,-4.30
2023-03-01T05:38:55.189Z,-4.30
2023-03-01T05:41:23.632Z,-4.30
2023-03-01T05:43:52.489Z,-4.40
2023-03-01T05:46:25.661Z,-4.40
2023-03-01T05:48:54.247Z,-4.40
2023-03-01T05:51:23.313Z,-4.40
2023-03-01T05:53:51.923Z,-4.50
2023-03-01T05:56:20.451Z,-4.60
2023-03-01T05:58:50.868Z,-4.50
2023-03-01T06:01:19.533Z,-4.50
2023-03-01T06:03:49.724Z,-4.50
2023-03-01T06:06:18.230Z,-4.60
2023-03-01T06:08:47.084Z,-4.60
2023-03-01T06:11:15.563Z,-4.60
2023-03-01T06:13:44.496Z,-4.60
2023-03-01T06:16:13.787Z,-4.60
2023-03-01T06:18:43.230Z,-4.60
2023-03-01T06:21:13.186Z,-4.70
2023-03-01T06:23:41.679Z,-4.70
2023-03-01T06:26:10.812Z,-4.70
2023-03-01T06:28:39.650Z,-4.70
2023-03-01T06:31:10.011Z,-4.70
2023-03-01T06:33:38.897Z,-4.60
2023-03-01T06:36:08.251Z,-4.70
2023-03-01T06:38:38.320Z,-4.70
2023-03-01T06:41:07.883Z,-4.70
2023-03-01T06:43:36.819Z,-4.70
2023-03-01T06:46:07.997Z,-4.70
2023-03-01T06:48:37.104Z,-4.70
2023-03-01T06:51:05.900Z,-4.60
2023-03-01T06:53:34.404Z,-4.60
2023-03-01T06:56:04.479Z,-4.60
2023-03-01T06:58:33.299Z,-4.60
2023-03-01T07:01:02.038Z,-4.50
2023-03-01T07:05:58.762Z,-4.40
2023-03-01T07:08:27.855Z,-4.40
2023-03-01T07:10:58.565Z,-4.40
2023-03-01T07:13:29.180Z,-4.40
2023-03-01T07:15:58.386Z,-4.30
2023-03-01T07:18:27.603Z,-4.20
2023-03-01T07:20:56.297Z,-4.20
2023-03-01T07:23:24.904Z,-4.10
2023-03-01T07:25:57.518Z,-4.00
2023-03-01T07:28:28.314Z,-3.90
2023-03-01T07:30:57.474Z,-3.90
2023-03-01T07:33:28.079Z,-3.80
2023-03-01T07:36:01.079Z,-3.70
2023-03-01T07:38:30.728Z,-3.60
2023-03-01T07:41:02.319Z,-3.60
2023-03-01T07:43:32.922Z,-3.50
2023-03-01T07:46:05.386Z,-3.40
2023-03-01T07:48:35.771Z,-3.30
2023-03-01T07:51:07.072Z,-3.20
2023-03-01T07:53:36.982Z,-3.10
2023-03-01T07:56:07.853Z,-2.90
2023-03-01T07:58:39.584Z,-2.80
2023-03-01T08:01:09.642Z,-2.70
2023-03-01T08:03:39.252Z,-2.50
2023-03-01T08:06:09.577Z,-2.40
2023-03-01T08:08:39.172Z,-2.30
2023-03-01T08:11:10.121Z,-2.20
2023-03-01T08:13:40.171Z,-2.10
2023-03-01T08:16:12.438Z,-2.00
2023-03-01T08:18:41.167Z,-1.80
2023-03-01T08:21:11.736Z,-1.70
2023-03-01T08:23:41.645Z,-1.50
2023-03-01T08:26:13.127Z,-1.40
2023-03-01T08:28:43.989Z,-1.30
2023-03-01T08:31:20.741Z,-1.10
2023-03-01T08:33:52.732Z,-0.90
2023-03-01T08:36:22.044Z,-0.70
2023-03-01T08:38:51.303Z,-0.60
2023-03-01T08:41:20.339Z,-0.50
2023-03-01T08:43:50.884Z,-0.30
2023-03-01T08:46:19.730Z,-0.20
2023-03-01T08:48:48.843Z,-0.20
2023-03-01T08:51:19.793Z,-0.10
2023-03-01T08:53:49.100Z,-0.10
2023-03-01T08:56:19.386Z,0.10
2023-03-01T08:58:51.508Z,0.20
2023-03-01T09:01:21.489Z,0.20
2023-03-01T09:03:50.197Z,0.30
2023-03-01T09:06:19.051Z,0.30
2023-03-01T09:08:49.475Z,0.30
2023-03-01T09:11:20.678Z,0.50
2023-03-01T09:13:51.933Z,0.60
2023-03-01T09:16:22.979Z,0.80
2023-03-01T09:18:53.458Z,0.80
2023-03-01T09:21:38.713Z,1.00
2023-03-01T09:24:08.744Z,1.10
2023-03-01T09:26:39.597Z,1.10
2023-03-01T09:29:10.789Z,1.20
2023-03-01T09:31:39.965Z,1.30
2023-03-01T09:34:09.158Z,1.40
2023-03-01T09:36:38.300Z,1.40
2023-03-01T09:39:08.216Z,1.50
2023-03-01T09:41:47.695Z,1.60
2023-03-01T09:44:32.452Z,1.60
2023-03-01T09:47:01.826Z,1.70
2023-03-01T09:49:33.257Z,1.90
2023-03-01T09:52:07.166Z,1.90
2023-03-01T09:54:35.857Z,1.90
2023-03-01T09:57:20.855Z,2.00
2023-03-01T10:00:05.488Z,2.00
2023-03-01T10:02:41.883Z,2.10
2023-03-01T10:05:23.729Z,2.20
2023-03-01T10:08:01.568Z,2.20
2023-03-01T10:10:35.011Z,2.40
2023-03-01T10:13:07.563Z,2.40
2023-03-01T10:15:43.251Z,2.50
2023-03-01T10:18:19.089Z,2.60
2023-03-01T10:20:53.489Z,2.60
2023-03-01T10:23:22.279Z,2.70
2023-03-01T10:26:05.823Z,2.70
2023-03-01T10:28:43.498Z,2.70
2023-03-01T10:31:18.942Z,2.80
2023-03-01T10:33:49.071Z,2.80
2023-03-01T10:36:17.805Z,2.80
2023-03-01T10:38:55.393Z,2.90
2023-03-01T10:41:28.993Z,2.90
2023-03-01T10:44:00.826Z,3.00
2023-03-01T10:46:32.763Z,3.00
2023-03-01T10:49:14.489Z,3.00
2023-03-01T10:51:44.547Z,3.00
2023-03-01T10:54:28.894Z,3.00
2023-03-01T10:56:59.769Z,3.20
2023-03-01T10:59:32.119Z,3.30
2023-03-01T11:02:25.703Z,3.40
2023-03-01T11:05:03.906Z,3.40
2023-03-01T11:07:32.643Z,3.40
2023-03-01T11:10:04.050Z,3.50
2023-03-01T11:12:40.871Z,3.50
2023-03-01T11:15:33.983Z,3.50
2023-03-01T11:18:14.166Z,3.50
2023-03-01T11:20:44.090Z,3.60
2023-03-01T11:23:19.192Z,3.60
2023-03-01T11:25:55.100Z,3.60
2023-03-01T11:28:27.291Z,3.60
2023-03-01T11:31:08.224Z,3.60
2023-03-01T11:33:46.201Z,3.60
2023-03-01T11:36:24.686Z,3.60
2023-03-01T11:38:55.996Z,3.80
2023-03-01T11:41:28.808Z,3.80
2023-03-01T11:44:01.946Z,3.90
2023-03-01T11:47:04.079Z,3.90
2023-03-01T11:49:50.954Z,3.90
2023-03-01T11:52:30.812Z,3.90
2023-03-01T11:55:18.956Z,3.90
2023-03-01T11:58:01.849Z,3.90
2023-03-01T12:00:47.774Z,4.00
2023-03-01T12:03:42.982Z,4.00
2023-03-01T12:06:35.851Z,4.00
2023-03-01T12:09:19.869Z,4.00
2023-03-01T12:12:05.398Z,4.10
2023-03-01T12:14:52.744Z,4.20
2023-03-01T12:17:46.256Z,4.20
2023-03-01T12:20:28.173Z,4.30
2023-03-01T12:23:20.930Z,4.30
2023-03-01T12:26:02.022Z,4.30
2023-03-01T12:28:49.652Z,4.40
2023-03-01T12:31:49.916Z,4.50
2023-03-01T12:34:45.281Z,4.50
2023-03-01T12:37:27.903Z,4.50
2023-03-01T12:40:19.076Z,4.50
2023-03-01T12:42:59.102Z,4.60
2023-03-01T12:45:49.216Z,4.60
2023-03-01T12:48:33.948Z,4.60
2023-03-01T12:51:05.698Z,4.70
2023-03-01T12:53:39.201Z,4.60
2023-03-01T12:56:13.353Z,4.60
2023-03-01T12:58:51.325Z,4.70
2023-03-01T13:01:35.468Z,4.80
2023-03-01T13:04:19.833Z,4.90
2023-03-01T13:06:58.626Z,4.90
2023-03-01T13:09:37.266Z,4.90
2023-03-01T13:12:53.024Z,4.90
2023-03-01T13:15:33.697Z,4.90
2023-03-01T13:18:06.368Z,4.90
2023-03-01T13:20:48.003Z,4.90
2023-03-01T13:23:28.890Z,5.00
2023-03-01T13:26:14.167Z,5.10
2023-03-01T13:28:58.727Z,5.10
2023-03-01T13:32:05.153Z,5.10
2023-03-01T13:34:46.893Z,5.20
2023-03-01T13:37:23.876Z,5.10
2023-03-01T13:39:52.598Z,5.20
2023-03-01T13:42:40.208Z,5.20
2023-03-01T13:45:22.577Z,5.20
2023-03-01T13:47:56.029Z,5.30
2023-03-01T13:50:28.240Z,5.30
2023-03-01T13:53:01.638Z,5.30
2023-03-01T13:55:40.508Z,5.30
2023-03-01T13:58:21.444Z,5.30
2023-03-01T14:00:58.964Z,5.30
2023-03-01T14:03:28.672Z,5.30
2023-03-01T14:06:14.231Z,5.40
2023-03-01T14:08:46.236Z,5.40
2023-03-01T14:12:11.690Z,5.50
2023-03-01T14:14:51.147Z,5.50
2023-03-01T14:17:40.712Z,5.40
2023-03-01T14:20:15.553Z,5.40
2023-03-01T14:22:45.800Z,5.30
2023-03-01T14:25:28.729Z,5.30
2023-03-01T14:28:05.775Z,5.30
2023-03-01T14:30:40.723Z,5.30
2023-03-01T14:33:24.217Z,5.30
2023-03-01T14:35:59.791Z,5.40
2023-03-01T14:38:36.442Z,5.40
2023-03-01T14:41:08.510Z,5.40
2023-03-01T14:43:39.137Z,5.40
2023-03-01T14:46:08.873Z,5.40
2023-03-01T14:48:39.638Z,5.40
2023-03-01T14:51:08.853Z,5.40
2023-03-01T14:53:50.299Z,5.50
2023-03-01T14:56:20.573Z,5.50
2023-03-01T14:58:53.899Z,5.60
2023-03-01T15:01:24.175Z,5.60
2023-03-01T15:03:57.715Z,5.60
2023-03-01T15:06:30.835Z,5.50
2023-03-01T15:09:03.059Z,5.60
2023-03-01T15:11:33.849Z,5.60
2023-03-01T15:14:03.036Z,5.50
2023-03-01T15:16:33.851Z,5.50
2023-03-01T15:19:09.865Z,5.50
2023-03-01T15:21:43.448Z,5.50
2023-03-01T15:24:22.722Z,5.50
2023-03-01T15:26:58.880Z,5.50
2023-03-01T15:29:34.878Z,5.50
2023-03-01T15:32:07.718Z,5.40
2023-03-01T15:34:40.242Z,5.40
2023-03-01T15:37:34.720Z,5.40
2023-03-01T15:40:05.422Z,5.40
2023-03-01T15:42:41.223Z,5.40
2023-03-01T15:45:22.974Z,5.40
2023-03-01T15:47:53.956Z,5.30
2023-03-01T15:50:28.294Z,5.30
2023-03-01T15:52:58.364Z,5.30
2023-03-01T15:55:31.177Z,5.30
2023-03-01T15:58:05.113Z,5.30
2023-03-01T16:00:34.019Z,5.30
2023-03-01T16:03:02.724Z,5.30
2023-03-01T16:05:35.889Z,5.40
2023-03-01T16:08:06.860Z,5.30
2023-03-01T16:10:36.580Z,5.30
2023-03-01T16:13:09.013Z,5.20
2023-03-01T16:15:39.298Z,5.20
2023-03-01T16:18:11.415Z,5.20
2023-03-01T16:20:42.326Z,5.20
2023-03-01T16:23:13.522Z,5.10
2023-03-01T16:25:42.354Z,5.20
2023-03-01T16:28:11.298Z,5.10
2023-03-01T16:30:42.026Z,5.10
2023-03-01T16:33:24.394Z,5.10
2023-03-01T16:36:01.202Z,5.10
2023-03-01T16:38:34.157Z,5.00
2023-03-01T16:41:03.356Z,4.90
2023-03-01T16:43:33.022Z,4.90
2023-03-01T16:46:01.972Z,4.80
2023-03-01T16:48:32.227Z,4.70
2023-03-01T16:51:04.708Z,4.70
2023-03-01T16:53:33.760Z,4.60
2023-03-01T16:56:02.882Z,4.60
2023-03-01T16:58:31.732Z,4.60
2023-03-01T17:01:07.048Z,4.50
2023-03-01T17:03:36.126Z,4.50
2023-03-01T17:06:12.239Z,4.50
2023-03-01T17:08:41.518Z,4.40
2023-03-01T17:11:12.291Z,4.30
2023-03-01T17:13:42.130Z,4.20
2023-03-01T17:16:13.147Z,4.20
2023-03-01T17:18:42.032Z,4.10
2023-03-01T17:21:13.052Z,4.10
2023-03-01T17:23:44.596Z,4.10
2023-03-01T17:26:13.848Z,4.00
2023-03-01T17:28:44.101Z,4.00
2023-03-01T17:31:12.866Z,3.90
2023-03-01T17:33:41.840Z,3.80
2023-03-01T17:36:12.566Z,3.80
2023-03-01T17:38:41.676Z,3.80
2023-03-01T17:41:12.305Z,3.70
2023-03-01T17:43:41.058Z,3.70
2023-03-01T17:46:10.233Z,3.70
2023-03-01T17:48:39.816Z,3.70
2023-03-01T17:51:10.182Z,3.60
2023-03-01T17:53:41.649Z,3.50
2023-03-01T17:56:13.534Z,3.50
2023-03-01T17:58:42.308Z,3.40
2023-03-01T18:01:12.829Z,3.40
2023-03-01T18:03:42.177Z,3.30
2023-03-01T18:06:15.928Z,3.30
2023-03-01T18:08:46.850Z,3.30
2023-03-01T18:11:16.748Z,3.30
2023-03-01T18:13:46.019Z,3.20
2023-03-01T18:16:17.024Z,3.10
2023-03-01T18:18:46.461Z,3.10
2023-03-01T18:21:17.693Z,3.00
2023-03-01T18:23:47.976Z,3.10
2023-03-01T18:26:20.119Z,3.10
2023-03-01T18:28:54.418Z,3.00
2023-03-01T18:31:24.074Z,3.00
2023-03-01T18:33:59.077Z,2.90
2023-03-01T18:36:31.750Z,2.80
2023-03-01T18:39:04.972Z,2.70
2023-03-01T18:41:34.524Z,2.70
2023-03-01T18:44:05.620Z,2.60
2023-03-01T18:46:40.396Z,2.60
2023-03-01T18:49:10.183Z,2.60
2023-03-01T18:51:53.929Z,2.50
2023-03-01T18:54:26.933Z,2.60
2023-03-01T18:56:55.938Z,2.60
2023-03-01T18:59:25.086Z,2.60
2023-03-01T19:01:54.119Z,2.60
2023-03-01T19:04:27.270Z,2.60
2023-03-01T19:06:56.136Z,2.60
2023-03-01T19:09:28.541Z,2.60
2023-03-01T19:11:59.458Z,2.50
2023-03-01T19:14:28.504Z,2.50
2023-03-01T19:16:57.563Z,2.40
2023-03-01T19:19:27.537Z,2.40
2023-03-01T19:22:05.701Z,2.40
2023-03-01T19:24:39.663Z,2.30
2023-03-01T19:27:09.452Z,2.20
2023-03-01T19:29:38.578Z,2.20
2023-03-01T19:32:10.589Z,2.20
2023-03-01T19:34:42.002Z,2.20
2023-03-01T19:37:11.202Z,2.20
2023-03-01T19:39:42.341Z,2.10
2023-03-01T19:42:16.168Z,2.00
2023-03-01T19:44:45.047Z,2.10
2023-03-01T19:47:15.465Z,2.00
2023-03-01T19:49:45.495Z,2.00
2023-03-01T19:52:14.630Z,2.00
2023-03-01T19:55:09.094Z,2.00
2023-03-01T19:57:44.477Z,1.90
2023-03-01T20:00:14.636Z,1.90
2023-03-01T20:02:57.222Z,1.90
2023-03-01T20:05:26.384Z,1.90
2023-03-01T20:07:57.627Z,1.90
2023-03-01T20:10:33.131Z,1.90
2023-03-01T20:13:05.289Z,1.80
2023-03-01T20:15:35.669Z,1.80
2023-03-01T20:18:10.351Z,1.80
2023-03-01T20:20:40.014Z,1.70
2023-03-01T20:23:09.285Z,1.80
2023-03-01T20:25:40.538Z,1.80
2023-03-01T20:28:12.929Z,1.80
2023-03-01T20:30:45.947Z,1.80
2023-03-01T20:33:15.437Z,1.80
2023-03-01T20:35:44.835Z,1.80
2023-03-01T20:38:16.697Z,1.70
2023-03-01T20:40:47.269Z,1.60
2023-03-01T20:43:16.494Z,1.60
2023-03-01T20:45:52.987Z,1.50
2023-03-01T20:48:27.384Z,1.50
2023-03-01T20:51:02.718Z,1.40
2023-03-01T20:53:31.933Z,1.40
2023-03-01T20:56:06.551Z,1.30
2023-03-01T20:58:37.537Z,1.20
2023-03-01T21:01:17.172Z,1.20
2023-03-01T21:03:46.666Z,1.20
2023-03-01T21:06:15.947Z,1.20
2023-03-01T21:08:45.805Z,1.10
2023-03-01T21:11:18.462Z,1.00
2023-03-01T21:13:47.522Z,1.00
2023-03-01T21:16:17.216Z,1.00
2023-03-01T21:18:46.697Z,1.10
2023-03-01T21:21:21.109Z,1.00
2023-03-01T21:23:50.739Z,1.10
2023-03-01T21:26:22.918Z,1.00
2023-03-01T21:28:55.031Z,1.00
2023-03-01T21:31:27.818Z,1.00
2023-03-01T21:34:00.054Z,0.90
2023-03-01T21:36:31.281Z,0.80
2023-03-01T21:39:03.278Z,0.70
2023-03-01T21:41:35.646Z,0.60
2023-03-01T21:44:07.386Z,0.60
2023-03-01T21:46:38.622Z,0.50
2023-03-01T21:49:09.038Z,0.40
2023-03-01T21:51:40.169Z,0.50
2023-03-01T21:54:09.373Z,0.50
2023-03-01T21:56:40.160Z,0.50
2023-03-01T21:59:14.591Z,0.60
2023-03-01T22:01:45.374Z,0.50
2023-03-01T22:04:14.924Z,0.50
2023-03-01T22:06:48.446Z,0.60
2023-03-01T22:09:18.920Z,0.60
2023-03-01T22:11:51.305Z,0.50
2023-03-01T22:14:21.150Z,0.50
2023-03-01T22:16:53.589Z,0.40
2023-03-01T22:19:22.833Z,0.50
2023-03-01T22:21:54.867Z,0.50
2023-03-01T22:24:26.296Z,0.50
2023-03-01T22:26:57.016Z,0.50
2023-03-01T22:29:27.826Z,0.40
2023-03-01T22:31:58.557Z,0.40
2023-03-01T22:34:28.271Z,0.50
2023-03-01T22:36:58.911Z,0.70
2023-03-01T22:39:27.493Z,0.70
2023-03-01T22:41:57.720Z,0.80
2023-03-01T22:44:26.489Z,0.90
2023-03-01T22:46:55.430Z,0.90
2023-03-01T22:49:24.221Z,0.90
2023-03-01T22:51:53.561Z,0.80
2023-03-01T22:54:22.827Z,0.70
2023-03-01T22:56:52.469Z,0.70
2023-03-01T22:59:24.189Z,0.70
2023-03-01T23:01:53.712Z,0.60
2023-03-01T23:04:23.586Z,0.70
2023-03-01T23:06:54.515Z,0.80
2023-03-01T23:09:25.874Z,0.80
2023-03-01T23:11:55.341Z,0.80
2023-03-01T23:14:25.865Z,0.90
2023-03-01T23:16:54.759Z,0.90
2023-03-01T23:19:23.957Z,0.90
2023-03-01T23:21:54.649Z,0.90
2023-03-01T23:24:31.961Z,0.90
2023-03-01T23:27:02.629Z,0.80
2023-03-01T23:29:33.278Z,0.80
2023-03-01T23:32:02.127Z,0.80
2023-03-01T23:34:30.874Z,0.70
2023-03-01T23:36:59.725Z,0.80
2023-03-01T23:39:30.070Z,0.70
2023-03-01T23:41:59.352Z,0.60
2023-03-01T23:44:27.999Z,0.70
2023-03-01T23:46:58.242Z,0.70
2023-03-01T23:49:28.032Z,0.70
2023-03-01T23:51:56.531Z,0.80
2023-03-01T23:54:25.783Z,0.80
2023-03-01T23:56:54.552Z,0.80
2023-03-01T23:59:24.805Z,0.80
